Chesterfield, Missouri
Current Conditions -  °F | °C
As of 2:54 PM on Sunday 23 Nov 2014 (Local Time) from KSUS Reporting Station
Moderate Rain Moderate Rain  
Wind Chill: 55°   Ceiling: 900
Heat Index: 55°   Visibility: 4mi
Dew Point: 53°   Wind: 3mph
Humidity: 93%   Direction: 110°ESE
Pressure: 29.36"   Gusts: NA
Location:  38.65°N, 90.55°W
Report Text: KSUS 232054Z 11003KT 4SM RA BR BKN009 OVC012 13/12 A2936 RMK AO2 SLP940 P0011 60030 T01280117 56047
Loading
Personal Weather Stations






























Interactive Weather Map New forecast layout! Learn more

10-Day Weather Forecast

Advertisements
Track Severe Weather on mobile